WMKJ/JHB METAR and TAF weather

Enter ICAO airport designator
Station Type Date Time Source
WMKJ METAR 2021/03/06 01:00 UTC NOAA

WMKJ 060100Z 02004KT 320V060 9999 FEW018 27/25 Q1012


Station Type Date Time Source
WMKJ Decoded METAR 2021/03/06 01:00 UTC NOAA

Johore Bharu / Senai, Malaysia (WMKJ) 01-38N 103-40E 40M
Mar 05, 2021 - 08:00 PM EST / 2021.03.06 0100 UTC
Wind: from the NNE (020 degrees) at 5 MPH (4 KT) (direction variable):0
Visibility: greater than 7 mile(s):0
Sky conditions: mostly clear
Temperature: 80 F (27 C)
Dew Point: 77 F (25 C)
Relative Humidity: 88%
Pressure (altimeter): 29.88 in. Hg (1012 hPa)
ob: WMKJ 060100Z 02004KT 320V060 9999 FEW018 27/25 Q1012
cycle: 1

Station Type Date Time Source
WMKJ TAF 2021/03/05 18:10 UTC NOAA

TAF WMKJ 051700Z 0518/0618 04005KT 9999 FEW022 PROB30
TEMPO 0608/0612 08010KT 5000 TSRA FEW017CB SCT018

Example: see airport list